Time,TemperatureF,DewpointF,PressureIn,WindDirection,WindDirectionDegrees,WindSpeedMPH,WindSpeedGustMPH,Humidity,HourlyPrecipIn,Conditions,Clouds,dailyrainin,SoftwareType,DateUTC
2013-11-05 00:00:00,37.2,26.1,30.80,WNW,283,1.0,1.0,64,0.00,,,0.04,Wunderground v.1.15,2013-11-05 04:00:00,
2013-11-05 00:10:00,37.2,26.5,30.81,WNW,302,0.0,15.0,65,0.00,,,0.00,Wunderground v.1.15,2013-11-05 04:10:00,
2013-11-05 00:15:00,37.0,26.3,30.81,NW,304,0.0,15.0,65,0.00,,,0.00,Wunderground v.1.15,2013-11-05 04:15:00,
2013-11-05 00:20:00,36.7,25.7,30.81,NW,304,0.0,15.0,64,0.00,,,0.00,Wunderground v.1.15,2013-11-05 04:20:00,
2013-11-05 00:30:00,35.7,25.1,30.82,WNW,303,0.0,15.0,65,0.00,,,0.00,Wunderground v.1.15,2013-11-05 04:30:00,
2013-11-05 00:35:00,35.4,25.2,30.82,NW,304,0.0,15.0,66,0.00,,,0.00,Wunderground v.1.15,2013-11-05 04:35:00,
2013-11-05 00:40:00,35.0,25.1,30.82,WNW,303,0.0,15.0,67,0.00,,,0.00,Wunderground v.1.15,2013-11-05 04:40:00,
2013-11-05 00:45:00,34.5,25.0,30.81,NW,304,0.0,15.0,68,0.00,,,0.00,Wunderground v.1.15,2013-11-05 04:45:00,
2013-11-05 00:50:00,34.0,24.9,30.82,WNW,303,0.0,15.0,69,0.00,,,0.00,Wunderground v.1.15,2013-11-05 04:50:00,
2013-11-05 01:00:00,32.9,25.8,30.82,WNW,303,0.0,15.0,75,0.00,,,0.00,Wunderground v.1.15,2013-11-05 05:00:00,
2013-11-05 01:05:00,32.6,25.9,30.82,WNW,303,0.0,15.0,76,0.00,,,0.00,Wunderground v.1.15,2013-11-05 05:05:00,
2013-11-05 01:10:00,32.7,26.6,30.82,SW,214,0.0,15.0,78,0.00,,,0.00,Wunderground v.1.15,2013-11-05 05:10:00,
2013-11-05 01:15:00,33.3,26.9,30.82,SW,231,0.0,15.0,77,0.00,,,0.00,Wunderground v.1.15,2013-11-05 05:15:00,
2013-11-05 01:20:00,34.0,27.2,30.82,SW,224,1.0,15.0,76,0.00,,,0.00,Wunderground v.1.15,2013-11-05 05:20:00,
2013-11-05 01:25:00,34.4,27.6,30.81,South,186,1.0,15.0,76,0.00,,,0.00,Wunderground v.1.15,2013-11-05 05:25:00,
2013-11-05 01:30:00,34.5,27.7,30.82,SW,214,0.0,15.0,76,0.00,,,0.00,Wunderground v.1.15,2013-11-05 05:30:00,
2013-11-05 01:35:00,34.7,27.9,30.82,SW,222,1.0,15.0,76,0.00,,,0.00,Wunderground v.1.15,2013-11-05 05:35:00,
2013-11-05 01:40:00,34.7,27.9,30.82,SW,214,1.0,1.0,76,0.00,,,0.00,Wunderground v.1.15,2013-11-05 05:40:00,
2013-11-05 01:45:00,34.7,28.2,30.82,SW,233,0.0,15.0,77,0.00,,,0.00,Wunderground v.1.15,2013-11-05 05:45:00,
2013-11-05 01:50:00,34.8,28.3,30.82,SSW,211,0.0,15.0,77,0.00,,,0.00,Wunderground v.1.15,2013-11-05 05:50:00,
2013-11-05 01:55:00,34.7,28.2,30.82,SSW,211,0.0,15.0,77,0.00,,,0.00,Wunderground v.1.15,2013-11-05 05:55:00,
2013-11-05 02:05:00,34.8,28.6,30.82,SSW,211,0.0,15.0,78,0.00,,,0.00,Wunderground v.1.15,2013-11-05 06:05:00,
2013-11-05 02:10:00,34.8,28.6,30.82,SSW,211,0.0,15.0,78,0.00,,,0.00,Wunderground v.1.15,2013-11-05 06:10:00,
2013-11-05 02:15:00,34.9,28.7,30.82,SSW,211,0.0,15.0,78,0.00,,,0.00,Wunderground v.1.15,2013-11-05 06:15:00,
2013-11-05 02:20:00,34.9,28.7,30.82,SSW,211,0.0,15.0,78,0.00,,,0.00,Wunderground v.1.15,2013-11-05 06:20:00,
2013-11-05 02:25:00,34.9,28.7,30.82,SSW,210,0.0,15.0,78,0.00,,,0.00,Wunderground v.1.15,2013-11-05 06:25:00,
2013-11-05 02:35:00,35.0,28.5,30.82,SSW,201,0.0,15.0,77,0.00,,,0.00,Wunderground v.1.15,2013-11-05 06:35:00,
2013-11-05 02:40:00,35.1,28.6,30.82,SW,218,0.0,15.0,77,0.00,,,0.00,Wunderground v.1.15,2013-11-05 06:40:00,
2013-11-05 02:45:00,35.1,28.3,30.82,SW,222,0.0,15.0,76,0.00,,,0.00,Wunderground v.1.15,2013-11-05 06:45:00,
2013-11-05 02:50:00,35.2,28.4,30.82,SSW,198,0.0,15.0,76,0.00,,,0.00,Wunderground v.1.15,2013-11-05 06:50:00,
2013-11-05 02:55:00,35.2,28.4,30.82,SSW,211,0.0,15.0,76,0.00,,,0.00,Wunderground v.1.15,2013-11-05 06:55:00,
2013-11-05 03:00:00,35.3,28.2,30.82,SW,228,1.0,15.0,75,0.00,,,0.00,Wunderground v.1.15,2013-11-05 07:00:00,
2013-11-05 03:10:00,35.3,28.2,30.82,SW,229,1.0,15.0,75,0.00,,,0.00,Wunderground v.1.15,2013-11-05 07:10:00,
2013-11-05 03:15:00,35.3,28.2,30.82,SW,231,1.0,15.0,75,0.00,,,0.00,Wunderground v.1.15,2013-11-05 07:15:00,
2013-11-05 03:20:00,35.2,28.1,30.82,SW,231,1.0,1.0,75,0.00,,,0.00,Wunderground v.1.15,2013-11-05 07:20:00,
2013-11-05 03:25:00,35.2,28.1,30.82,SW,226,0.0,2.0,75,0.00,,,0.00,Wunderground v.1.15,2013-11-05 07:25:00,
2013-11-05 03:30:00,35.2,28.1,30.82,SW,215,0.0,15.0,75,0.00,,,0.00,Wunderground v.1.15,2013-11-05 07:30:00,
2013-11-05 03:40:00,35.1,28.0,30.82,SW,222,0.0,15.0,75,0.00,,,0.00,Wunderground v.1.15,2013-11-05 07:40:00,
2013-11-05 03:45:00,35.1,27.6,30.82,SSW,198,1.0,15.0,74,0.00,,,0.00,Wunderground v.1.15,2013-11-05 07:45:00,
2013-11-05 03:50:00,35.2,27.7,30.82,SW,225,0.0,15.0,74,0.00,,,0.00,Wunderground v.1.15,2013-11-05 07:50:00,
2013-11-05 03:55:00,35.2,27.4,30.81,SSW,197,1.0,15.0,73,0.00,,,0.00,Wunderground v.1.15,2013-11-05 07:55:00,
2013-11-05 04:00:00,35.4,27.6,30.81,South,191,1.0,15.0,73,0.00,,,0.00,Wunderground v.1.15,2013-11-05 08:00:00,
2013-11-05 04:05:00,35.4,27.9,30.82,SSW,204,1.0,15.0,74,0.00,,,0.00,Wunderground v.1.15,2013-11-05 08:05:00,
2013-11-05 04:15:00,35.3,27.5,30.82,SSW,197,0.0,15.0,73,0.00,,,0.00,Wunderground v.1.15,2013-11-05 08:15:00,
2013-11-05 04:20:00,35.3,27.5,30.82,SW,236,0.0,15.0,73,0.00,,,0.00,Wunderground v.1.15,2013-11-05 08:20:00,
2013-11-05 04:25:00,35.3,27.8,30.82,SW,226,0.0,15.0,74,0.00,,,0.00,Wunderground v.1.15,2013-11-05 08:25:00,
2013-11-05 04:30:00,35.2,27.7,30.82,SW,221,0.0,15.0,74,0.00,,,0.00,Wunderground v.1.15,2013-11-05 08:30:00,
2013-11-05 04:35:00,35.2,27.7,30.82,SW,232,1.0,15.0,74,0.00,,,0.00,Wunderground v.1.15,2013-11-05 08:35:00,
2013-11-05 04:45:00,35.2,27.7,30.83,SW,225,1.0,15.0,74,0.00,,,0.00,Wunderground v.1.15,2013-11-05 08:45:00,
2013-11-05 04:50:00,35.1,28.0,30.83,SW,226,0.0,15.0,75,0.00,,,0.00,Wunderground v.1.15,2013-11-05 08:50:00,
2013-11-05 04:55:00,35.1,28.0,30.83,SW,216,0.0,15.0,75,0.00,,,0.00,Wunderground v.1.15,2013-11-05 08:55:00,
2013-11-05 05:00:00,35.0,27.9,30.83,SW,222,0.0,15.0,75,0.00,,,0.00,Wunderground v.1.15,2013-11-05 09:00:00,
2013-11-05 05:05:00,34.9,28.1,30.84,SW,217,0.0,15.0,76,0.00,,,0.00,Wunderground v.1.15,2013-11-05 09:05:00,
2013-11-05 05:10:00,34.9,28.1,30.84,SW,218,0.0,15.0,76,0.00,,,0.00,Wunderground v.1.15,2013-11-05 09:10:00,
2013-11-05 05:15:00,34.9,28.7,30.84,West,262,0.0,15.0,78,0.00,,,0.00,Wunderground v.1.15,2013-11-05 09:15:00,
2013-11-05 05:20:00,34.7,29.2,30.84,West,280,0.0,15.0,80,0.00,,,0.00,Wunderground v.1.15,2013-11-05 09:20:00,
2013-11-05 05:25:00,34.5,29.9,30.84,SW,215,0.0,15.0,83,0.00,,,0.00,Wunderground v.1.15,2013-11-05 09:25:00,
2013-11-05 05:30:00,34.2,29.9,30.84,SSW,208,0.0,15.0,84,0.00,,,0.00,Wunderground v.1.15,2013-11-05 09:30:00,
2013-11-05 05:35:00,34.1,30.4,30.84,SSW,210,0.0,15.0,86,0.00,,,0.00,Wunderground v.1.15,2013-11-05 09:35:00,
2013-11-05 05:40:00,34.0,30.8,30.84,WSW,252,1.0,15.0,88,0.00,,,0.00,Wunderground v.1.15,2013-11-05 09:40:00,
2013-11-05 05:50:00,34.0,31.1,30.84,SW,222,1.0,15.0,89,0.00,,,0.00,Wunderground v.1.15,2013-11-05 09:50:00,
2013-11-05 05:55:00,34.0,31.4,30.84,SW,217,1.0,15.0,90,0.00,,,0.00,Wunderground v.1.15,2013-11-05 09:55:00,
2013-11-05 06:00:00,33.9,31.3,30.84,South,189,1.0,1.0,90,0.00,,,0.00,Wunderground v.1.15,2013-11-05 10:00:00,
2013-11-05 06:05:00,33.8,31.2,30.85,SSW,212,1.0,15.0,90,0.00,,,0.00,Wunderground v.1.15,2013-11-05 10:05:00,
2013-11-05 06:10:00,33.8,31.2,30.85,SSW,212,1.0,15.0,90,0.00,,,0.00,Wunderground v.1.15,2013-11-05 10:10:00,
2013-11-05 06:20:00,33.8,31.2,30.85,SSW,201,0.0,15.0,90,0.00,,,0.00,Wunderground v.1.15,2013-11-05 10:20:00,
2013-11-05 06:25:00,33.9,31.6,30.85,SSW,205,0.0,15.0,91,0.00,,,0.00,Wunderground v.1.15,2013-11-05 10:25:00,
2013-11-05 06:30:00,33.9,31.6,30.85,SSW,207,1.0,15.0,91,0.00,,,0.00,Wunderground v.1.15,2013-11-05 10:30:00,
2013-11-05 06:35:00,33.9,31.6,30.85,SSW,204,1.0,15.0,91,0.00,,,0.00,Wunderground v.1.15,2013-11-05 10:35:00,
2013-11-05 06:40:00,34.0,31.6,30.85,SW,224,1.0,1.0,91,0.00,,,0.00,Wunderground v.1.15,2013-11-05 10:40:00,
2013-11-05 06:45:00,34.0,31.6,30.85,South,186,0.0,15.0,91,0.00,,,0.00,Wunderground v.1.15,2013-11-05 10:45:00,
2013-11-05 06:55:00,34.0,31.6,30.85,SSW,203,1.0,15.0,91,0.00,,,0.00,Wunderground v.1.15,2013-11-05 10:55:00,
2013-11-05 07:00:00,33.9,31.3,30.85,South,186,1.0,15.0,90,0.00,,,0.00,Wunderground v.1.15,2013-11-05 11:00:00,
2013-11-05 07:05:00,33.9,31.3,30.85,SW,218,0.0,15.0,90,0.00,,,0.00,Wunderground v.1.15,2013-11-05 11:05:00,
2013-11-05 07:10:00,33.9,31.3,30.85,SSW,207,0.0,15.0,90,0.00,,,0.00,Wunderground v.1.15,2013-11-05 11:10:00,
2013-11-05 07:15:00,33.8,31.2,30.85,SW,219,0.0,15.0,90,0.00,,,0.00,Wunderground v.1.15,2013-11-05 11:15:00,
2013-11-05 07:25:00,33.9,31.0,30.85,SW,215,1.0,15.0,89,0.00,,,0.00,Wunderground v.1.15,2013-11-05 11:25:00,
2013-11-05 07:30:00,34.0,31.1,30.85,SW,221,0.0,15.0,89,0.00,,,0.00,Wunderground v.1.15,2013-11-05 11:30:00,
2013-11-05 07:35:00,34.1,31.2,30.85,SSW,205,0.0,15.0,89,0.00,,,0.00,Wunderground v.1.15,2013-11-05 11:35:00,
2013-11-05 07:40:00,34.4,31.5,30.85,SSW,201,0.0,15.0,89,0.00,,,0.00,Wunderground v.1.15,2013-11-05 11:40:00,
2013-11-05 07:45:00,34.8,31.9,30.85,SSW,193,1.0,15.0,89,0.00,,,0.00,Wunderground v.1.15,2013-11-05 11:45:00,
2013-11-05 07:50:00,34.9,31.7,30.85,SSW,203,1.0,15.0,88,0.00,,,0.00,Wunderground v.1.15,2013-11-05 11:50:00,
2013-11-05 08:00:00,34.9,31.7,30.85,South,186,1.0,15.0,88,0.00,,,0.01,Wunderground v.1.15,2013-11-05 12:00:00,
2013-11-05 08:05:00,35.0,31.8,30.85,SW,218,1.0,15.0,88,0.00,,,0.01,Wunderground v.1.15,2013-11-05 12:05:00,
2013-11-05 08:10:00,35.1,31.9,30.85,SSW,205,1.0,1.0,88,0.00,,,0.01,Wunderground v.1.15,2013-11-05 12:10:00,
2013-11-05 08:15:00,35.3,32.1,30.86,WSW,245,0.0,2.0,88,0.00,,,0.01,Wunderground v.1.15,2013-11-05 12:15:00,
2013-11-05 08:20:00,35.4,32.2,30.86,SW,214,1.0,1.0,88,0.00,,,0.01,Wunderground v.1.15,2013-11-05 12:20:00,
2013-11-05 08:30:00,36.3,32.8,30.86,SSW,195,1.0,1.0,87,0.00,,,0.01,Wunderground v.1.15,2013-11-05 12:30:00,
2013-11-05 08:35:00,36.5,32.1,30.86,SSW,205,1.0,15.0,84,0.00,,,0.01,Wunderground v.1.15,2013-11-05 12:35:00,
2013-11-05 08:40:00,36.3,31.6,30.86,WSW,240,1.0,15.0,83,0.00,,,0.01,Wunderground v.1.15,2013-11-05 12:40:00,
2013-11-05 08:45:00,36.4,31.4,30.86,SW,231,1.0,15.0,82,0.00,,,0.01,Wunderground v.1.15,2013-11-05 12:45:00,
2013-11-05 08:50:00,36.5,31.2,30.86,SW,232,1.0,1.0,81,0.00,,,0.01,Wunderground v.1.15,2013-11-05 12:50:00,
2013-11-05 08:55:00,37.0,31.4,30.86,SW,231,1.0,15.0,80,0.00,,,0.01,Wunderground v.1.15,2013-11-05 12:55:00,
2013-11-05 09:00:00,38.0,31.7,30.86,WSW,252,1.0,15.0,78,0.00,,,0.01,Wunderground v.1.15,2013-11-05 13:00:00,
2013-11-05 09:05:00,39.1,31.8,30.86,SSW,203,1.0,15.0,75,0.00,,,0.01,Wunderground v.1.15,2013-11-05 13:05:00,
2013-11-05 09:10:00,39.7,31.4,30.86,West,268,1.0,1.0,72,0.00,,,0.01,Wunderground v.1.15,2013-11-05 13:10:00,
2013-11-05 09:15:00,40.3,32.0,30.86,WNW,291,1.0,15.0,72,0.00,,,0.01,Wunderground v.1.15,2013-11-05 13:15:00,
2013-11-05 09:20:00,40.8,31.1,30.86,WSW,238,1.0,1.0,68,0.00,,,0.01,Wunderground v.1.15,2013-11-05 13:20:00,
2013-11-05 09:25:00,41.0,30.5,30.86,West,269,1.0,15.0,66,0.00,,,0.01,Wunderground v.1.15,2013-11-05 13:25:00,
2013-11-05 09:35:00,41.4,30.9,30.86,SW,236,1.0,15.0,66,0.00,,,0.01,Wunderground v.1.15,2013-11-05 13:35:00,
2013-11-05 09:40:00,41.5,30.6,30.86,West,277,1.0,1.0,65,0.00,,,0.01,Wunderground v.1.15,2013-11-05 13:40:00,
2013-11-05 09:45:00,41.6,30.3,30.86,WSW,251,2.0,2.0,64,0.00,,,0.01,Wunderground v.1.15,2013-11-05 13:45:00,
2013-11-05 09:50:00,41.9,30.2,30.86,NW,314,1.0,15.0,63,0.00,,,0.01,Wunderground v.1.15,2013-11-05 13:50:00,
2013-11-05 09:55:00,42.1,30.8,30.85,SW,229,1.0,15.0,64,0.00,,,0.01,Wunderground v.1.15,2013-11-05 13:55:00,
2013-11-05 10:05:00,42.4,30.3,30.84,WSW,242,1.0,15.0,62,0.00,,,0.01,Wunderground v.1.15,2013-11-05 14:05:00,
2013-11-05 10:10:00,42.4,28.7,30.84,WNW,298,1.0,1.0,58,0.00,,,0.01,Wunderground v.1.15,2013-11-05 14:10:00,
2013-11-05 10:15:00,41.8,28.9,30.84,SW,236,1.0,15.0,60,0.00,,,0.01,Wunderground v.1.15,2013-11-05 14:15:00,
2013-11-05 10:20:00,42.0,29.9,30.84,SSW,193,1.0,1.0,62,0.00,,,0.01,Wunderground v.1.15,2013-11-05 14:20:00,
2013-11-05 10:25:00,42.1,29.6,30.84,WSW,239,1.0,15.0,61,0.00,,,0.01,Wunderground v.1.15,2013-11-05 14:25:00,
2013-11-05 10:30:00,42.2,29.3,30.84,West,273,1.0,15.0,60,0.00,,,0.01,Wunderground v.1.15,2013-11-05 14:30:00,
2013-11-05 10:40:00,42.2,28.9,30.85,WSW,240,1.0,15.0,59,0.00,,,0.01,Wunderground v.1.15,2013-11-05 14:40:00,
2013-11-05 10:45:00,42.1,29.6,30.85,NW,307,1.0,15.0,61,0.00,,,0.01,Wunderground v.1.15,2013-11-05 14:45:00,
2013-11-05 10:50:00,41.9,29.4,30.85,NW,311,1.0,1.0,61,0.00,,,0.01,Wunderground v.1.15,2013-11-05 14:50:00,
2013-11-05 10:55:00,41.8,28.5,30.85,SW,236,1.0,15.0,59,0.00,,,0.01,Wunderground v.1.15,2013-11-05 14:55:00,
2013-11-05 11:00:00,42.3,29.4,30.85,SSW,206,1.0,1.0,60,0.00,,,0.01,Wunderground v.1.15,2013-11-05 15:00:00,
2013-11-05 11:10:00,42.5,29.2,30.85,WNW,285,1.0,1.0,59,0.00,,,0.01,Wunderground v.1.15,2013-11-05 15:10:00,
2013-11-05 11:15:00,42.0,29.1,30.85,West,270,2.0,2.0,60,0.00,,,0.01,Wunderground v.1.15,2013-11-05 15:15:00,
2013-11-05 11:20:00,41.8,28.9,30.85,WSW,243,1.0,15.0,60,0.00,,,0.01,Wunderground v.1.15,2013-11-05 15:20:00,
2013-11-05 11:25:00,41.8,29.3,30.84,West,273,1.0,15.0,61,0.00,,,0.01,Wunderground v.1.15,2013-11-05 15:25:00,
2013-11-05 11:30:00,41.9,29.4,30.84,SSW,210,1.0,1.0,61,0.00,,,0.01,Wunderground v.1.15,2013-11-05 15:30:00,
2013-11-05 11:35:00,41.7,28.8,30.84,WNW,288,1.0,15.0,60,0.00,,,0.01,Wunderground v.1.15,2013-11-05 15:35:00,
2013-11-05 11:45:00,42.9,28.7,30.84,West,276,1.0,15.0,57,0.00,,,0.01,Wunderground v.1.15,2013-11-05 15:45:00,
2013-11-05 11:50:00,42.5,28.8,30.84,SSW,207,2.0,2.0,58,0.00,,,0.01,Wunderground v.1.15,2013-11-05 15:50:00,
2013-11-05 11:55:00,42.1,28.4,30.83,WSW,245,2.0,15.0,58,0.00,,,0.01,Wunderground v.1.15,2013-11-05 15:55:00,
2013-11-05 12:00:00,42.2,28.5,30.83,WNW,288,1.0,1.0,58,0.00,,,0.01,Wunderground v.1.15,2013-11-05 16:00:00,
2013-11-05 12:05:00,43.0,29.6,30.83,NNW,338,1.0,15.0,59,0.00,,,0.01,Wunderground v.1.15,2013-11-05 16:05:00,
2013-11-05 12:10:00,43.8,30.0,30.83,SW,226,1.0,1.0,58,0.00,,,0.01,Wunderground v.1.15,2013-11-05 16:10:00,
2013-11-05 12:15:00,43.3,29.1,30.82,WSW,243,1.0,2.0,57,0.00,,,0.01,Wunderground v.1.15,2013-11-05 16:15:00,
2013-11-05 12:20:00,43.0,27.5,30.82,SW,229,2.0,15.0,54,0.00,,,0.01,Wunderground v.1.15,2013-11-05 16:20:00,
2013-11-05 12:30:00,43.2,29.8,30.82,SW,221,2.0,15.0,59,0.00,,,0.01,Wunderground v.1.15,2013-11-05 16:30:00,
2013-11-05 12:35:00,42.6,28.8,30.82,SW,215,2.0,15.0,58,0.00,,,0.01,Wunderground v.1.15,2013-11-05 16:35:00,
2013-11-05 12:40:00,41.7,28.8,30.82,SSW,205,2.0,2.0,60,0.00,,,0.01,Wunderground v.1.15,2013-11-05 16:40:00,
2013-11-05 12:45:00,42.0,30.3,30.81,SW,225,2.0,5.0,63,0.00,,,0.01,Wunderground v.1.15,2013-11-05 16:45:00,
2013-11-05 12:50:00,42.1,30.4,30.81,WNW,290,2.0,15.0,63,0.00,,,0.01,Wunderground v.1.15,2013-11-05 16:50:00,
2013-11-05 12:55:00,42.3,29.8,30.81,SW,221,3.0,15.0,61,0.00,,,0.01,Wunderground v.1.15,2013-11-05 16:55:00,
2013-11-05 13:00:00,42.1,29.6,30.81,South,183,2.0,2.0,61,0.00,,,0.01,Wunderground v.1.15,2013-11-05 17:00:00,
2013-11-05 13:05:00,42.2,30.1,30.81,SW,214,1.0,15.0,62,0.00,,,0.01,Wunderground v.1.15,2013-11-05 17:05:00,
2013-11-05 13:10:00,42.9,30.8,30.81,West,275,1.0,15.0,62,0.00,,,0.01,Wunderground v.1.15,2013-11-05 17:10:00,
2013-11-05 13:20:00,43.7,29.9,30.81,South,185,1.0,15.0,58,0.00,,,0.01,Wunderground v.1.15,2013-11-05 17:20:00,
2013-11-05 13:25:00,43.0,28.8,30.80,SW,222,3.0,15.0,57,0.00,,,0.01,Wunderground v.1.15,2013-11-05 17:25:00,
2013-11-05 13:30:00,42.6,28.4,30.80,South,186,4.0,4.0,57,0.00,,,0.01,Wunderground v.1.15,2013-11-05 17:30:00,
2013-11-05 13:35:00,42.2,27.6,30.80,SSW,206,5.0,5.0,56,0.00,,,0.01,Wunderground v.1.15,2013-11-05 17:35:00,
2013-11-05 13:40:00,41.5,28.6,30.80,WNW,293,4.0,4.0,60,0.00,,,0.01,Wunderground v.1.15,2013-11-05 17:40:00,
2013-11-05 13:50:00,41.7,28.8,30.80,SSW,201,3.0,15.0,60,0.00,,,0.01,Wunderground v.1.15,2013-11-05 17:50:00,
2013-11-05 13:55:00,41.9,29.0,30.80,WSW,240,3.0,15.0,60,0.00,,,0.01,Wunderground v.1.15,2013-11-05 17:55:00,
2013-11-05 14:00:00,42.2,28.5,30.79,SSE,166,3.0,15.0,58,0.00,,,0.01,Wunderground v.1.15,2013-11-05 18:00:00,
2013-11-05 14:05:00,42.0,28.7,30.79,South,179,5.0,15.0,59,0.00,,,0.01,Wunderground v.1.15,2013-11-05 18:05:00,
2013-11-05 14:10:00,42.1,28.8,30.79,SW,226,5.0,5.0,59,0.00,,,0.01,Wunderground v.1.15,2013-11-05 18:10:00,
2013-11-05 14:15:00,42.3,28.6,30.79,SW,226,3.0,15.0,58,0.00,,,0.01,Wunderground v.1.15,2013-11-05 18:15:00,
2013-11-05 14:25:00,41.8,28.1,30.79,South,188,4.0,15.0,58,0.00,,,0.01,Wunderground v.1.15,2013-11-05 18:25:00,
2013-11-05 14:30:00,41.8,27.7,30.79,South,183,4.0,15.0,57,0.00,,,0.01,Wunderground v.1.15,2013-11-05 18:30:00,
2013-11-05 14:35:00,41.9,28.2,30.79,South,188,4.0,15.0,58,0.00,,,0.01,Wunderground v.1.15,2013-11-05 18:35:00,
2013-11-05 14:40:00,42.1,28.8,30.79,WSW,253,3.0,3.0,59,0.00,,,0.01,Wunderground v.1.15,2013-11-05 18:40:00,
2013-11-05 14:45:00,42.3,28.1,30.79,South,172,2.0,15.0,57,0.00,,,0.01,Wunderground v.1.15,2013-11-05 18:45:00,
2013-11-05 14:55:00,42.1,28.4,30.79,SSW,200,3.0,15.0,58,0.00,,,0.01,Wunderground v.1.15,2013-11-05 18:55:00,
2013-11-05 15:00:00,42.0,27.4,30.79,SSW,200,4.0,15.0,56,0.00,,,0.01,Wunderground v.1.15,2013-11-05 19:00:00,
2013-11-05 15:05:00,42.0,27.0,30.79,SW,217,4.0,15.0,55,0.00,,,0.01,Wunderground v.1.15,2013-11-05 19:05:00,
2013-11-05 15:10:00,42.1,27.1,30.79,SW,221,4.0,4.0,55,0.00,,,0.01,Wunderground v.1.15,2013-11-05 19:10:00,
2013-11-05 15:15:00,42.1,26.2,30.79,SW,221,3.0,15.0,53,0.00,,,0.01,Wunderground v.1.15,2013-11-05 19:15:00,
2013-11-05 15:20:00,41.6,25.3,30.79,SSW,207,4.0,15.0,52,0.00,,,0.01,Wunderground v.1.15,2013-11-05 19:20:00,
2013-11-05 15:30:00,41.5,25.2,30.79,SW,232,3.0,15.0,52,0.00,,,0.01,Wunderground v.1.15,2013-11-05 19:30:00,
2013-11-05 15:35:00,41.4,25.1,30.78,West,263,3.0,15.0,52,0.00,,,0.01,Wunderground v.1.15,2013-11-05 19:35:00,
2013-11-05 15:40:00,41.7,25.4,30.78,SSW,194,2.0,2.0,52,0.00,,,0.01,Wunderground v.1.15,2013-11-05 19:40:00,
2013-11-05 15:45:00,41.8,25.0,30.78,WSW,239,0.0,15.0,51,0.00,,,0.01,Wunderground v.1.15,2013-11-05 19:45:00,
2013-11-05 15:50:00,41.4,25.1,30.78,SW,232,1.0,15.0,52,0.00,,,0.01,Wunderground v.1.15,2013-11-05 19:50:00,
2013-11-05 15:55:00,41.1,23.9,30.78,SSW,206,2.0,15.0,50,0.00,,,0.01,Wunderground v.1.15,2013-11-05 19:55:00,
2013-11-05 16:00:00,40.4,24.1,30.78,SSW,193,2.0,2.0,52,0.00,,,0.01,Wunderground v.1.15,2013-11-05 20:00:00,
2013-11-05 16:05:00,39.9,24.1,30.78,SSW,197,2.0,3.0,53,0.00,,,0.01,Wunderground v.1.15,2013-11-05 20:05:00,
2013-11-05 16:10:00,39.5,24.7,30.78,SW,215,1.0,1.0,55,0.00,,,0.01,Wunderground v.1.15,2013-11-05 20:10:00,
2013-11-05 16:15:00,39.2,23.9,30.78,SW,218,1.0,15.0,54,0.00,,,0.01,Wunderground v.1.15,2013-11-05 20:15:00,
2013-11-05 16:20:00,39.0,24.2,30.78,WSW,240,1.0,1.0,55,0.00,,,0.01,Wunderground v.1.15,2013-11-05 20:20:00,
2013-11-05 16:30:00,38.2,26.3,30.77,WSW,240,0.0,15.0,62,0.00,,,0.01,Wunderground v.1.15,2013-11-05 20:30:00,
2013-11-05 16:35:00,37.6,27.3,30.77,WSW,240,0.0,15.0,66,0.00,,,0.01,Wunderground v.1.15,2013-11-05 20:35:00,
2013-11-05 16:40:00,37.0,27.1,30.77,SSW,193,0.0,15.0,67,0.00,,,0.01,Wunderground v.1.15,2013-11-05 20:40:00,
2013-11-05 16:45:00,36.6,27.4,30.77,South,191,0.0,15.0,69,0.00,,,0.01,Wunderground v.1.15,2013-11-05 20:45:00,
2013-11-05 16:50:00,36.3,27.1,30.77,South,191,0.0,15.0,69,0.00,,,0.01,Wunderground v.1.15,2013-11-05 20:50:00,
2013-11-05 16:55:00,36.2,26.3,30.77,South,191,0.0,15.0,67,0.00,,,0.01,Wunderground v.1.15,2013-11-05 20:55:00,
2013-11-05 17:05:00,35.7,27.2,30.78,SSW,194,0.0,15.0,71,0.00,,,0.01,Wunderground v.1.15,2013-11-05 21:05:00,
2013-11-05 17:10:00,35.3,26.8,30.78,SSW,194,0.0,15.0,71,0.00,,,0.01,Wunderground v.1.15,2013-11-05 21:10:00,
2013-11-05 17:15:00,34.9,26.8,30.77,South,174,0.0,15.0,72,0.00,,,0.01,Wunderground v.1.15,2013-11-05 21:15:00,
2013-11-05 17:20:00,34.4,26.3,30.77,SE,131,1.0,15.0,72,0.00,,,0.01,Wunderground v.1.15,2013-11-05 21:20:00,
2013-11-05 17:25:00,33.8,26.4,30.76,SE,131,1.0,15.0,74,0.00,,,0.01,Wunderground v.1.15,2013-11-05 21:25:00,
2013-11-05 17:35:00,33.0,26.3,30.76,SSE,150,1.0,15.0,76,0.00,,,0.01,Wunderground v.1.15,2013-11-05 21:35:00,
2013-11-05 17:40:00,33.2,26.5,30.76,South,171,1.0,15.0,76,0.00,,,0.01,Wunderground v.1.15,2013-11-05 21:40:00,
2013-11-05 17:45:00,33.4,26.3,30.76,South,171,1.0,15.0,75,0.00,,,0.01,Wunderground v.1.15,2013-11-05 21:45:00,
2013-11-05 17:50:00,32.9,25.8,30.76,South,170,0.0,15.0,75,0.00,,,0.01,Wunderground v.1.15,2013-11-05 21:50:00,
2013-11-05 17:55:00,32.4,25.7,30.75,South,170,0.0,15.0,76,0.00,,,0.01,Wunderground v.1.15,2013-11-05 21:55:00,
2013-11-05 18:00:00,31.8,25.4,30.76,South,170,0.0,15.0,77,0.00,,,0.01,Wunderground v.1.15,2013-11-05 22:00:00,
2013-11-05 18:10:00,30.9,25.5,30.75,South,170,0.0,15.0,80,0.00,,,0.01,Wunderground v.1.15,2013-11-05 22:10:00,
2013-11-05 18:15:00,30.5,25.4,30.75,South,171,0.0,15.0,81,0.00,,,0.01,Wunderground v.1.15,2013-11-05 22:15:00,
2013-11-05 18:20:00,30.2,25.4,30.75,South,171,0.0,15.0,82,0.00,,,0.01,Wunderground v.1.15,2013-11-05 22:20:00,
2013-11-05 18:25:00,30.0,25.5,30.75,SE,141,0.0,15.0,83,0.00,,,0.01,Wunderground v.1.15,2013-11-05 22:25:00,
2013-11-05 18:30:00,29.7,25.5,30.75,SE,141,0.0,15.0,84,0.00,,,0.01,Wunderground v.1.15,2013-11-05 22:30:00,
2013-11-05 18:40:00,29.5,25.5,30.75,ESE,113,0.0,15.0,85,0.00,,,0.01,Wunderground v.1.15,2013-11-05 22:40:00,
2013-11-05 18:45:00,29.4,25.4,30.75,ESE,113,0.0,15.0,85,0.00,,,0.01,Wunderground v.1.15,2013-11-05 22:45:00,
2013-11-05 18:50:00,29.8,25.8,30.74,SSE,151,0.0,15.0,85,0.00,,,0.01,Wunderground v.1.15,2013-11-05 22:50:00,
2013-11-05 18:55:00,30.1,25.8,30.75,SSE,151,0.0,15.0,84,0.00,,,0.01,Wunderground v.1.15,2013-11-05 22:55:00,
2013-11-05 19:00:00,29.8,25.3,30.74,SSE,150,0.0,15.0,83,0.00,,,0.01,Wunderground v.1.15,2013-11-05 23:00:00,
2013-11-05 19:05:00,29.5,25.3,30.74,SSE,150,0.0,15.0,84,0.00,,,0.01,Wunderground v.1.15,2013-11-05 23:05:00,
2013-11-05 19:15:00,29.0,25.1,30.74,SSE,150,0.0,15.0,85,0.00,,,0.01,Wunderground v.1.15,2013-11-05 23:15:00,
2013-11-05 19:20:00,29.2,25.5,30.74,SSE,150,0.0,15.0,86,0.00,,,0.01,Wunderground v.1.15,2013-11-05 23:20:00,
2013-11-05 19:25:00,29.0,25.1,30.74,SSE,150,0.0,15.0,85,0.00,,,0.01,Wunderground v.1.15,2013-11-05 23:25:00,
2013-11-05 19:30:00,28.7,24.8,30.75,SSE,150,0.0,15.0,85,0.00,,,0.01,Wunderground v.1.15,2013-11-05 23:30:00,
2013-11-05 19:35:00,28.5,24.6,30.75,SSE,151,0.0,15.0,85,0.00,,,0.01,Wunderground v.1.15,2013-11-05 23:35:00,
2013-11-05 19:40:00,28.3,24.6,30.75,SSE,150,0.0,15.0,86,0.00,,,0.01,Wunderground v.1.15,2013-11-05 23:40:00,
2013-11-05 19:45:00,28.0,24.4,30.75,SSE,150,0.0,15.0,86,0.00,,,0.01,Wunderground v.1.15,2013-11-05 23:45:00,
2013-11-05 19:50:00,27.7,24.3,30.75,SSE,150,0.0,15.0,87,0.00,,,0.01,Wunderground v.1.15,2013-11-05 23:50:00,
2013-11-05 19:55:00,27.5,24.1,30.75,SSE,151,0.0,15.0,87,0.00,,,0.01,Wunderground v.1.15,2013-11-05 23:55:00,
2013-11-05 20:00:00,27.4,24.3,30.75,SSE,150,0.0,15.0,88,0.00,,,0.01,Wunderground v.1.15,2013-11-06 00:00:00,
2013-11-05 20:05:00,27.6,24.8,30.75,SSE,150,0.0,15.0,89,0.00,,,0.01,Wunderground v.1.15,2013-11-06 00:05:00,
2013-11-05 20:15:00,28.3,25.7,30.75,SSW,193,0.0,15.0,90,0.00,,,0.01,Wunderground v.1.15,2013-11-06 00:15:00,
2013-11-05 20:20:00,29.0,26.2,30.74,SSW,195,0.0,15.0,89,0.00,,,0.01,Wunderground v.1.15,2013-11-06 00:20:00,
2013-11-05 20:25:00,29.5,26.1,30.74,South,186,0.0,15.0,87,0.00,,,0.01,Wunderground v.1.15,2013-11-06 00:25:00,
2013-11-05 20:30:00,29.8,26.1,30.74,South,181,1.0,15.0,86,0.00,,,0.01,Wunderground v.1.15,2013-11-06 00:30:00,
2013-11-05 20:35:00,29.8,25.8,30.74,SSW,195,1.0,15.0,85,0.00,,,0.01,Wunderground v.1.15,2013-11-06 00:35:00,
2013-11-05 20:40:00,29.9,25.9,30.75,SSW,195,1.0,15.0,85,0.00,,,0.01,Wunderground v.1.15,2013-11-06 00:40:00,
2013-11-05 20:50:00,30.2,25.9,30.75,SSW,195,0.0,15.0,84,0.00,,,0.01,Wunderground v.1.15,2013-11-06 00:50:00,
2013-11-05 20:55:00,29.8,25.3,30.75,SSW,195,0.0,15.0,83,0.00,,,0.01,Wunderground v.1.15,2013-11-06 00:55:00,
2013-11-05 21:00:00,29.4,25.2,30.74,SSW,195,0.0,15.0,84,0.00,,,0.01,Wunderground v.1.15,2013-11-06 01:00:00,
2013-11-05 21:05:00,28.9,24.7,30.74,SSW,195,0.0,15.0,84,0.00,,,0.01,Wunderground v.1.15,2013-11-06 01:05:00,
2013-11-05 21:10:00,28.3,24.4,30.73,SSW,195,0.0,15.0,85,0.00,,,0.01,Wunderground v.1.15,2013-11-06 01:10:00,
2013-11-05 21:20:00,28.7,25.3,30.73,SSW,195,0.0,15.0,87,0.00,,,0.01,Wunderground v.1.15,2013-11-06 01:20:00,
2013-11-05 21:25:00,28.8,25.4,30.73,SSW,195,0.0,15.0,87,0.00,,,0.01,Wunderground v.1.15,2013-11-06 01:25:00,
2013-11-05 21:30:00,28.5,24.8,30.73,SSW,195,0.0,15.0,86,0.00,,,0.01,Wunderground v.1.15,2013-11-06 01:30:00,
2013-11-05 21:35:00,28.3,24.9,30.73,SSW,195,0.0,15.0,87,0.00,,,0.01,Wunderground v.1.15,2013-11-06 01:35:00,
2013-11-05 21:40:00,28.1,24.7,30.73,SSW,195,0.0,15.0,87,0.00,,,0.01,Wunderground v.1.15,2013-11-06 01:40:00,
2013-11-05 21:45:00,27.7,24.3,30.73,SSW,195,0.0,15.0,87,0.00,,,0.01,Wunderground v.1.15,2013-11-06 01:45:00,
2013-11-05 21:55:00,26.9,23.5,30.73,SSW,195,0.0,15.0,87,0.00,,,0.01,Wunderground v.1.15,2013-11-06 01:55:00,
2013-11-05 22:00:00,26.9,23.8,30.72,SSW,195,0.0,15.0,88,0.00,,,0.01,Wunderground v.1.15,2013-11-06 02:00:00,
2013-11-05 22:05:00,26.7,23.9,30.72,SSW,195,0.0,15.0,89,0.00,,,0.01,Wunderground v.1.15,2013-11-06 02:05:00,
2013-11-05 22:10:00,26.8,24.0,30.72,SSW,195,0.0,15.0,89,0.00,,,0.01,Wunderground v.1.15,2013-11-06 02:10:00,
2013-11-05 22:15:00,26.9,24.4,30.72,SSW,195,0.0,15.0,90,0.00,,,0.01,Wunderground v.1.15,2013-11-06 02:15:00,
2013-11-05 22:25:00,26.8,24.3,30.71,SSW,195,0.0,15.0,90,0.00,,,0.01,Wunderground v.1.15,2013-11-06 02:25:00,
2013-11-05 22:30:00,26.6,24.1,30.71,SSW,195,0.0,15.0,90,0.00,,,0.01,Wunderground v.1.15,2013-11-06 02:30:00,
2013-11-05 22:35:00,26.9,24.6,30.71,SSW,195,0.0,15.0,91,0.00,,,0.01,Wunderground v.1.15,2013-11-06 02:35:00,
2013-11-05 22:40:00,27.1,25.1,30.70,SSW,195,0.0,15.0,92,0.00,,,0.01,Wunderground v.1.15,2013-11-06 02:40:00,
2013-11-05 22:45:00,28.0,26.2,30.70,SSW,205,0.0,15.0,93,0.00,,,0.01,Wunderground v.1.15,2013-11-06 02:45:00,
2013-11-05 22:50:00,29.0,27.0,30.70,SW,215,0.0,15.0,92,0.00,,,0.01,Wunderground v.1.15,2013-11-06 02:50:00,
2013-11-05 22:55:00,29.5,26.9,30.70,South,191,0.0,15.0,90,0.00,,,0.01,Wunderground v.1.15,2013-11-06 02:55:00,
2013-11-05 23:05:00,31.1,27.7,30.69,South,190,1.0,15.0,87,0.00,,,0.01,Wunderground v.1.15,2013-11-06 03:05:00,
2013-11-05 23:10:00,31.9,27.9,30.69,SSW,204,2.0,2.0,85,0.00,,,0.01,Wunderground v.1.15,2013-11-06 03:10:00,
2013-11-05 23:15:00,32.3,28.0,30.69,SSW,204,1.0,15.0,84,0.00,,,0.01,Wunderground v.1.15,2013-11-06 03:15:00,
2013-11-05 23:20:00,32.6,27.7,30.69,SSW,208,1.0,15.0,82,0.00,,,0.01,Wunderground v.1.15,2013-11-06 03:20:00,
2013-11-05 23:25:00,32.1,27.5,30.68,South,183,1.0,15.0,83,0.00,,,0.01,Wunderground v.1.15,2013-11-06 03:25:00,
2013-11-05 23:30:00,32.0,27.4,30.69,SSW,197,1.0,1.0,83,0.00,,,0.01,Wunderground v.1.15,2013-11-06 03:30:00,
2013-11-05 23:35:00,32.0,27.4,30.69,SW,219,1.0,15.0,83,0.00,,,0.01,Wunderground v.1.15,2013-11-06 03:35:00,
2013-11-05 23:40:00,32.0,27.4,30.69,SW,219,0.0,15.0,83,0.00,,,0.01,Wunderground v.1.15,2013-11-06 03:40:00,
2013-11-05 23:45:00,31.8,27.2,30.69,South,187,0.0,15.0,83,0.00,,,0.01,Wunderground v.1.15,2013-11-06 03:45:00,
2013-11-05 23:50:00,31.8,27.2,30.69,South,187,0.0,15.0,83,0.00,,,0.01,Wunderground v.1.15,2013-11-06 03:50:00,